sensor_id;sensor_type;location;lat;lon;timestamp;P1;durP1;ratioP1;P2;durP2;ratioP2
47239;SDS011;32978;53.586;10.052;2023-02-15T00:02:34;70.10;;;41.70;;
47239;SDS011;32978;53.586;10.052;2023-02-15T00:07:30;79.20;;;42.03;;
47239;SDS011;32978;53.586;10.052;2023-02-15T00:12:28;78.55;;;43.78;;
47239;SDS011;32978;53.586;10.052;2023-02-15T00:17:28;140.27;;;53.47;;
47239;SDS011;32978;53.586;10.052;2023-02-15T00:22:25;82.28;;;41.58;;
47239;SDS011;32978;53.586;10.052;2023-02-15T00:27:22;73.05;;;41.42;;
47239;SDS011;32978;53.586;10.052;2023-02-15T00:32:18;79.30;;;42.25;;
47239;SDS011;32978;53.586;10.052;2023-02-15T00:37:15;87.32;;;44.75;;
47239;SDS011;32978;53.586;10.052;2023-02-15T00:42:12;74.05;;;41.90;;
47239;SDS011;32978;53.586;10.052;2023-02-15T00:47:08;108.63;;;46.72;;
47239;SDS011;32978;53.586;10.052;2023-02-15T00:52:04;69.90;;;43.05;;
47239;SDS011;32978;53.586;10.052;2023-02-15T00:57:01;97.60;;;48.28;;
47239;SDS011;32978;53.586;10.052;2023-02-15T01:01:57;81.07;;;49.05;;
47239;SDS011;32978;53.586;10.052;2023-02-15T01:06:54;71.28;;;43.10;;
47239;SDS011;32978;53.586;10.052;2023-02-15T01:11:50;76.10;;;45.75;;
47239;SDS011;32978;53.586;10.052;2023-02-15T01:16:47;130.25;;;48.35;;
47239;SDS011;32978;53.586;10.052;2023-02-15T01:21:43;85.10;;;44.30;;
47239;SDS011;32978;53.586;10.052;2023-02-15T01:26:39;101.68;;;49.97;;
47239;SDS011;32978;53.586;10.052;2023-02-15T01:31:36;83.82;;;44.75;;
47239;SDS011;32978;53.586;10.052;2023-02-15T01:36:34;73.07;;;43.15;;
47239;SDS011;32978;53.586;10.052;2023-02-15T01:41:31;81.28;;;45.00;;
47239;SDS011;32978;53.586;10.052;2023-02-15T01:46:40;68.47;;;40.53;;
47239;SDS011;32978;53.586;10.052;2023-02-15T01:51:43;67.13;;;42.75;;
47239;SDS011;32978;53.586;10.052;2023-02-15T01:56:42;180.85;;;51.88;;
47239;SDS011;32978;53.586;10.052;2023-02-15T02:01:38;77.72;;;42.72;;
47239;SDS011;32978;53.586;10.052;2023-02-15T02:06:35;107.90;;;46.72;;
47239;SDS011;32978;53.586;10.052;2023-02-15T02:11:34;94.05;;;45.72;;
47239;SDS011;32978;53.586;10.052;2023-02-15T02:16:34;87.07;;;46.25;;
47239;SDS011;32978;53.586;10.052;2023-02-15T02:38:09;71.20;;;43.85;;
47239;SDS011;32978;53.586;10.052;2023-02-15T02:43:14;76.47;;;42.60;;
47239;SDS011;32978;53.586;10.052;2023-02-15T02:48:24;71.72;;;42.58;;
47239;SDS011;32978;53.586;10.052;2023-02-15T02:53:23;72.05;;;42.42;;
47239;SDS011;32978;53.586;10.052;2023-02-15T02:58:26;80.13;;;44.47;;
47239;SDS011;32978;53.586;10.052;2023-02-15T03:03:28;64.00;;;36.83;;
47239;SDS011;32978;53.586;10.052;2023-02-15T03:08:32;73.93;;;40.30;;
47239;SDS011;32978;53.586;10.052;2023-02-15T03:13:33;63.90;;;38.78;;
47239;SDS011;32978;53.586;10.052;2023-02-15T03:18:33;74.38;;;41.90;;
47239;SDS011;32978;53.586;10.052;2023-02-15T03:23:34;59.65;;;38.92;;
47239;SDS011;32978;53.586;10.052;2023-02-15T03:28:37;71.85;;;41.20;;
47239;SDS011;32978;53.586;10.052;2023-02-15T03:33:39;92.00;;;44.28;;
47239;SDS011;32978;53.586;10.052;2023-02-15T03:38:43;72.13;;;41.58;;
47239;SDS011;32978;53.586;10.052;2023-02-15T03:43:53;87.22;;;45.67;;
47239;SDS011;32978;53.586;10.052;2023-02-15T03:49:00;79.03;;;46.17;;
47239;SDS011;32978;53.586;10.052;2023-02-15T03:59:03;68.88;;;41.45;;
47239;SDS011;32978;53.586;10.052;2023-02-15T04:04:19;66.30;;;41.83;;
47239;SDS011;32978;53.586;10.052;2023-02-15T04:09:21;83.77;;;43.27;;
47239;SDS011;32978;53.586;10.052;2023-02-15T04:14:36;70.38;;;43.50;;
47239;SDS011;32978;53.586;10.052;2023-02-15T04:19:51;89.40;;;43.95;;
47239;SDS011;32978;53.586;10.052;2023-02-15T04:25:06;76.60;;;42.17;;
47239;SDS011;32978;53.586;10.052;2023-02-15T04:30:05;60.42;;;39.47;;
47239;SDS011;32978;53.586;10.052;2023-02-15T04:35:03;83.95;;;43.75;;
47239;SDS011;32978;53.586;10.052;2023-02-15T04:40:02;66.28;;;42.97;;
47239;SDS011;32978;53.586;10.052;2023-02-15T04:44:59;95.50;;;43.80;;
47239;SDS011;32978;53.586;10.052;2023-02-15T04:49:55;66.75;;;41.50;;
47239;SDS011;32978;53.586;10.052;2023-02-15T04:54:53;71.18;;;42.75;;
47239;SDS011;32978;53.586;10.052;2023-02-15T04:59:50;59.40;;;39.63;;
47239;SDS011;32978;53.586;10.052;2023-02-15T05:04:46;108.05;;;42.75;;
47239;SDS011;32978;53.586;10.052;2023-02-15T05:09:43;52.15;;;36.75;;
47239;SDS011;32978;53.586;10.052;2023-02-15T05:14:39;60.00;;;40.40;;
47239;SDS011;32978;53.586;10.052;2023-02-15T05:19:35;74.55;;;40.95;;
47239;SDS011;32978;53.586;10.052;2023-02-15T05:24:32;59.28;;;37.92;;
47239;SDS011;32978;53.586;10.052;2023-02-15T05:29:47;63.35;;;40.03;;
47239;SDS011;32978;53.586;10.052;2023-02-15T05:34:43;63.28;;;40.10;;
47239;SDS011;32978;53.586;10.052;2023-02-15T05:39:40;139.82;;;47.55;;
47239;SDS011;32978;53.586;10.052;2023-02-15T05:44:36;64.38;;;40.15;;
47239;SDS011;32978;53.586;10.052;2023-02-15T05:49:33;57.42;;;37.33;;
47239;SDS011;32978;53.586;10.052;2023-02-15T05:54:29;51.63;;;35.90;;
47239;SDS011;32978;53.586;10.052;2023-02-15T05:59:25;56.17;;;38.35;;
47239;SDS011;32978;53.586;10.052;2023-02-15T06:04:22;57.92;;;39.65;;
47239;SDS011;32978;53.586;10.052;2023-02-15T06:09:18;80.70;;;40.25;;
47239;SDS011;32978;53.586;10.052;2023-02-15T06:14:15;50.60;;;35.47;;
47239;SDS011;32978;53.586;10.052;2023-02-15T06:19:12;58.28;;;39.30;;
47239;SDS011;32978;53.586;10.052;2023-02-15T06:24:08;59.20;;;39.95;;
47239;SDS011;32978;53.586;10.052;2023-02-15T06:29:05;70.07;;;40.42;;
47239;SDS011;32978;53.586;10.052;2023-02-15T06:34:02;50.40;;;36.45;;
47239;SDS011;32978;53.586;10.052;2023-02-15T06:38:58;69.00;;;37.85;;
47239;SDS011;32978;53.586;10.052;2023-02-15T06:43:55;58.53;;;36.85;;
47239;SDS011;32978;53.586;10.052;2023-02-15T06:48:51;67.53;;;40.47;;
47239;SDS011;32978;53.586;10.052;2023-02-15T06:53:48;59.35;;;38.78;;
47239;SDS011;32978;53.586;10.052;2023-02-15T06:58:44;56.20;;;37.85;;
47239;SDS011;32978;53.586;10.052;2023-02-15T07:03:45;58.65;;;38.17;;
47239;SDS011;32978;53.586;10.052;2023-02-15T07:08:41;58.25;;;39.63;;
47239;SDS011;32978;53.586;10.052;2023-02-15T07:13:38;60.25;;;38.72;;
47239;SDS011;32978;53.586;10.052;2023-02-15T07:18:34;60.78;;;38.13;;
47239;SDS011;32978;53.586;10.052;2023-02-15T07:23:31;53.78;;;37.33;;
47239;SDS011;32978;53.586;10.052;2023-02-15T07:28:28;58.65;;;39.15;;
47239;SDS011;32978;53.586;10.052;2023-02-15T07:33:24;64.80;;;37.95;;
47239;SDS011;32978;53.586;10.052;2023-02-15T07:38:23;67.38;;;39.33;;
47239;SDS011;32978;53.586;10.052;2023-02-15T07:43:22;53.95;;;37.10;;
47239;SDS011;32978;53.586;10.052;2023-02-15T07:48:18;65.43;;;37.38;;
47239;SDS011;32978;53.586;10.052;2023-02-15T07:53:15;146.40;;;47.17;;
47239;SDS011;32978;53.586;10.052;2023-02-15T07:58:11;67.00;;;38.72;;
47239;SDS011;32978;53.586;10.052;2023-02-15T08:03:07;55.70;;;39.00;;
47239;SDS011;32978;53.586;10.052;2023-02-15T08:13:25;56.67;;;38.03;;
47239;SDS011;32978;53.586;10.052;2023-02-15T08:18:21;87.57;;;40.17;;
47239;SDS011;32978;53.586;10.052;2023-02-15T08:23:18;63.72;;;37.50;;
47239;SDS011;32978;53.586;10.052;2023-02-15T08:28:14;50.70;;;38.13;;
47239;SDS011;32978;53.586;10.052;2023-02-15T08:33:11;56.50;;;37.80;;
47239;SDS011;32978;53.586;10.052;2023-02-15T08:38:07;58.65;;;38.85;;
47239;SDS011;32978;53.586;10.052;2023-02-15T08:43:04;53.92;;;38.03;;
47239;SDS011;32978;53.586;10.052;2023-02-15T08:48:00;57.67;;;37.08;;
47239;SDS011;32978;53.586;10.052;2023-02-15T08:52:56;59.78;;;37.80;;
47239;SDS011;32978;53.586;10.052;2023-02-15T08:57:53;55.85;;;38.40;;
47239;SDS011;32978;53.586;10.052;2023-02-15T09:02:51;185.63;;;46.88;;
47239;SDS011;32978;53.586;10.052;2023-02-15T09:07:48;59.30;;;37.33;;
47239;SDS011;32978;53.586;10.052;2023-02-15T09:12:44;53.35;;;37.53;;
47239;SDS011;32978;53.586;10.052;2023-02-15T09:17:41;64.90;;;38.67;;
47239;SDS011;32978;53.586;10.052;2023-02-15T09:22:37;62.70;;;37.13;;
47239;SDS011;32978;53.586;10.052;2023-02-15T09:27:34;60.00;;;35.80;;
47239;SDS011;32978;53.586;10.052;2023-02-15T09:32:30;54.72;;;36.90;;
47239;SDS011;32978;53.586;10.052;2023-02-15T09:37:27;52.47;;;37.15;;
47239;SDS011;32978;53.586;10.052;2023-02-15T09:59:19;52.90;;;35.58;;
47239;SDS011;32978;53.586;10.052;2023-02-15T10:31:11;57.22;;;37.42;;
47239;SDS011;32978;53.586;10.052;2023-02-15T11:08:00;57.05;;;37.45;;
47239;SDS011;32978;53.586;10.052;2023-02-15T11:13:04;55.23;;;35.00;;
47239;SDS011;32978;53.586;10.052;2023-02-15T11:23:17;56.50;;;36.03;;
47239;SDS011;32978;53.586;10.052;2023-02-15T11:28:22;52.85;;;34.47;;
47239;SDS011;32978;53.586;10.052;2023-02-15T11:33:35;60.55;;;38.20;;
47239;SDS011;32978;53.586;10.052;2023-02-15T11:38:34;49.75;;;32.75;;
47239;SDS011;32978;53.586;10.052;2023-02-15T11:43:53;59.95;;;36.95;;
47239;SDS011;32978;53.586;10.052;2023-02-15T11:48:57;50.55;;;32.60;;
47239;SDS011;32978;53.586;10.052;2023-02-15T11:53:54;55.78;;;36.47;;
47239;SDS011;32978;53.586;10.052;2023-02-15T12:09:30;50.05;;;33.85;;
47239;SDS011;32978;53.586;10.052;2023-02-15T12:14:46;51.42;;;32.38;;
47239;SDS011;32978;53.586;10.052;2023-02-15T12:19:44;46.67;;;31.87;;
47239;SDS011;32978;53.586;10.052;2023-02-15T12:24:45;47.05;;;32.20;;
47239;SDS011;32978;53.586;10.052;2023-02-15T12:29:53;43.55;;;28.50;;
47239;SDS011;32978;53.586;10.052;2023-02-15T12:34:55;44.15;;;29.15;;
47239;SDS011;32978;53.586;10.052;2023-02-15T12:40:18;43.13;;;30.08;;
47239;SDS011;32978;53.586;10.052;2023-02-15T12:45:28;41.00;;;30.33;;
47239;SDS011;32978;53.586;10.052;2023-02-15T12:50:25;44.40;;;31.63;;
47239;SDS011;32978;53.586;10.052;2023-02-15T12:55:29;49.95;;;37.35;;
47239;SDS011;32978;53.586;10.052;2023-02-15T13:00:27;41.20;;;30.88;;
47239;SDS011;32978;53.586;10.052;2023-02-15T13:10:35;41.58;;;29.33;;
47239;SDS011;32978;53.586;10.052;2023-02-15T13:15:36;43.05;;;28.77;;
47239;SDS011;32978;53.586;10.052;2023-02-15T13:20:37;36.75;;;28.45;;
47239;SDS011;32978;53.586;10.052;2023-02-15T13:25:45;40.85;;;28.90;;
47239;SDS011;32978;53.586;10.052;2023-02-15T13:30:47;34.67;;;25.45;;
47239;SDS011;32978;53.586;10.052;2023-02-15T13:35:50;35.65;;;26.85;;
47239;SDS011;32978;53.586;10.052;2023-02-15T13:41:01;41.13;;;30.20;;
47239;SDS011;32978;53.586;10.052;2023-02-15T13:46:07;36.23;;;26.90;;
47239;SDS011;32978;53.586;10.052;2023-02-15T13:51:16;32.92;;;26.15;;
47239;SDS011;32978;53.586;10.052;2023-02-15T13:56:53;28.77;;;23.35;;
47239;SDS011;32978;53.586;10.052;2023-02-15T14:02:28;32.20;;;24.83;;
47239;SDS011;32978;53.586;10.052;2023-02-15T14:18:36;25.58;;;21.05;;
47239;SDS011;32978;53.586;10.052;2023-02-15T14:34:48;28.33;;;22.52;;
47239;SDS011;32978;53.586;10.052;2023-02-15T14:39:52;25.10;;;21.52;;
47239;SDS011;32978;53.586;10.052;2023-02-15T14:45:31;24.95;;;20.80;;
47239;SDS011;32978;53.586;10.052;2023-02-15T14:55:36;27.42;;;21.33;;
47239;SDS011;32978;53.586;10.052;2023-02-15T15:00:36;31.30;;;22.98;;
47239;SDS011;32978;53.586;10.052;2023-02-15T15:05:35;28.38;;;22.33;;
47239;SDS011;32978;53.586;10.052;2023-02-15T15:10:45;28.08;;;22.05;;
47239;SDS011;32978;53.586;10.052;2023-02-15T15:15:46;30.55;;;23.08;;
47239;SDS011;32978;53.586;10.052;2023-02-15T15:25:57;31.20;;;23.38;;
47239;SDS011;32978;53.586;10.052;2023-02-15T15:31:21;30.00;;;22.27;;
47239;SDS011;32978;53.586;10.052;2023-02-15T15:52:28;32.80;;;26.88;;
47239;SDS011;32978;53.586;10.052;2023-02-15T15:57:29;31.58;;;23.90;;
47239;SDS011;32978;53.586;10.052;2023-02-15T16:02:29;32.63;;;27.27;;
47239;SDS011;32978;53.586;10.052;2023-02-15T16:07:26;33.42;;;26.83;;
47239;SDS011;32978;53.586;10.052;2023-02-15T16:12:22;34.08;;;28.98;;
47239;SDS011;32978;53.586;10.052;2023-02-15T16:17:22;34.17;;;27.88;;
47239;SDS011;32978;53.586;10.052;2023-02-15T16:22:21;34.22;;;29.20;;
47239;SDS011;32978;53.586;10.052;2023-02-15T16:27:24;33.67;;;29.08;;
47239;SDS011;32978;53.586;10.052;2023-02-15T16:32:27;34.72;;;30.75;;
47239;SDS011;32978;53.586;10.052;2023-02-15T16:37:25;31.23;;;26.77;;
47239;SDS011;32978;53.586;10.052;2023-02-15T16:42:24;31.88;;;26.52;;
47239;SDS011;32978;53.586;10.052;2023-02-15T16:47:30;29.70;;;26.42;;
47239;SDS011;32978;53.586;10.052;2023-02-15T16:52:29;34.85;;;28.95;;
47239;SDS011;32978;53.586;10.052;2023-02-15T16:57:35;34.75;;;28.67;;
47239;SDS011;32978;53.586;10.052;2023-02-15T17:02:34;33.65;;;28.58;;
47239;SDS011;32978;53.586;10.052;2023-02-15T17:23:17;38.38;;;33.95;;
47239;SDS011;32978;53.586;10.052;2023-02-15T17:28:29;34.47;;;30.15;;
47239;SDS011;32978;53.586;10.052;2023-02-15T17:38:30;38.00;;;30.90;;
47239;SDS011;32978;53.586;10.052;2023-02-15T17:43:27;37.45;;;32.97;;
47239;SDS011;32978;53.586;10.052;2023-02-15T17:48:28;38.38;;;34.38;;
47239;SDS011;32978;53.586;10.052;2023-02-15T17:53:28;37.67;;;33.75;;
47239;SDS011;32978;53.586;10.052;2023-02-15T17:58:24;40.20;;;34.47;;
47239;SDS011;32978;53.586;10.052;2023-02-15T18:03:21;42.35;;;35.20;;
47239;SDS011;32978;53.586;10.052;2023-02-15T18:08:36;39.50;;;34.58;;
47239;SDS011;32978;53.586;10.052;2023-02-15T18:13:51;40.28;;;35.15;;
47239;SDS011;32978;53.586;10.052;2023-02-15T18:18:47;40.45;;;34.55;;
47239;SDS011;32978;53.586;10.052;2023-02-15T18:23:44;37.80;;;33.75;;
47239;SDS011;32978;53.586;10.052;2023-02-15T18:28:40;39.08;;;33.20;;
47239;SDS011;32978;53.586;10.052;2023-02-15T18:33:41;41.35;;;35.47;;
47239;SDS011;32978;53.586;10.052;2023-02-15T18:38:42;44.75;;;35.65;;
47239;SDS011;32978;53.586;10.052;2023-02-15T18:43:39;44.35;;;34.88;;
47239;SDS011;32978;53.586;10.052;2023-02-15T18:48:35;38.92;;;34.70;;
47239;SDS011;32978;53.586;10.052;2023-02-15T18:53:32;42.05;;;35.78;;
47239;SDS011;32978;53.586;10.052;2023-02-15T18:58:29;39.42;;;35.20;;
47239;SDS011;32978;53.586;10.052;2023-02-15T19:03:25;38.17;;;34.10;;
47239;SDS011;32978;53.586;10.052;2023-02-15T19:08:22;39.03;;;34.60;;
47239;SDS011;32978;53.586;10.052;2023-02-15T19:13:19;40.30;;;35.40;;
47239;SDS011;32978;53.586;10.052;2023-02-15T19:18:16;38.45;;;33.78;;
47239;SDS011;32978;53.586;10.052;2023-02-15T19:23:15;43.05;;;37.53;;
47239;SDS011;32978;53.586;10.052;2023-02-15T19:28:18;44.38;;;34.90;;
47239;SDS011;32978;53.586;10.052;2023-02-15T19:33:20;39.10;;;33.08;;
47239;SDS011;32978;53.586;10.052;2023-02-15T19:38:19;37.60;;;32.72;;
47239;SDS011;32978;53.586;10.052;2023-02-15T19:43:26;43.08;;;36.13;;
47239;SDS011;32978;53.586;10.052;2023-02-15T19:48:23;40.17;;;35.78;;
47239;SDS011;32978;53.586;10.052;2023-02-15T19:53:24;42.88;;;36.00;;
47239;SDS011;32978;53.586;10.052;2023-02-15T19:58:22;43.25;;;36.67;;
47239;SDS011;32978;53.586;10.052;2023-02-15T20:03:19;42.58;;;35.45;;
47239;SDS011;32978;53.586;10.052;2023-02-15T20:08:16;41.10;;;34.97;;
47239;SDS011;32978;53.586;10.052;2023-02-15T20:13:17;36.30;;;32.33;;
47239;SDS011;32978;53.586;10.052;2023-02-15T20:18:14;40.03;;;35.75;;
47239;SDS011;32978;53.586;10.052;2023-02-15T20:23:44;38.30;;;34.20;;
47239;SDS011;32978;53.586;10.052;2023-02-15T20:28:33;39.03;;;34.50;;
47239;SDS011;32978;53.586;10.052;2023-02-15T20:33:30;36.13;;;32.25;;
47239;SDS011;32978;53.586;10.052;2023-02-15T20:38:27;38.28;;;32.42;;
47239;SDS011;32978;53.586;10.052;2023-02-15T20:43:26;41.75;;;35.42;;
47239;SDS011;32978;53.586;10.052;2023-02-15T20:48:22;43.08;;;33.55;;
47239;SDS011;32978;53.586;10.052;2023-02-15T20:53:19;40.05;;;34.08;;
47239;SDS011;32978;53.586;10.052;2023-02-15T20:58:21;37.33;;;33.38;;
47239;SDS011;32978;53.586;10.052;2023-02-15T21:03:21;34.83;;;31.23;;
47239;SDS011;32978;53.586;10.052;2023-02-15T21:08:21;35.70;;;31.77;;
47239;SDS011;32978;53.586;10.052;2023-02-15T21:18:26;36.78;;;32.63;;
47239;SDS011;32978;53.586;10.052;2023-02-15T21:23:29;34.63;;;30.92;;
47239;SDS011;32978;53.586;10.052;2023-02-15T21:28:32;34.92;;;31.33;;
47239;SDS011;32978;53.586;10.052;2023-02-15T21:33:29;35.90;;;31.98;;
47239;SDS011;32978;53.586;10.052;2023-02-15T21:38:26;33.83;;;30.17;;
47239;SDS011;32978;53.586;10.052;2023-02-15T21:43:25;41.58;;;32.53;;
47239;SDS011;32978;53.586;10.052;2023-02-15T21:48:40;35.60;;;31.67;;
47239;SDS011;32978;53.586;10.052;2023-02-15T21:53:43;34.58;;;30.65;;
47239;SDS011;32978;53.586;10.052;2023-02-15T21:58:41;36.55;;;31.45;;
47239;SDS011;32978;53.586;10.052;2023-02-15T22:03:38;34.63;;;30.95;;
47239;SDS011;32978;53.586;10.052;2023-02-15T22:08:35;34.13;;;30.30;;
47239;SDS011;32978;53.586;10.052;2023-02-15T22:13:31;34.45;;;30.63;;
47239;SDS011;32978;53.586;10.052;2023-02-15T22:18:30;35.72;;;30.50;;
47239;SDS011;32978;53.586;10.052;2023-02-15T22:23:29;34.15;;;30.23;;
47239;SDS011;32978;53.586;10.052;2023-02-15T22:28:27;36.05;;;32.25;;
47239;SDS011;32978;53.586;10.052;2023-02-15T22:33:29;38.13;;;34.00;;
47239;SDS011;32978;53.586;10.052;2023-02-15T22:38:27;37.55;;;33.67;;
47239;SDS011;32978;53.586;10.052;2023-02-15T22:48:32;35.03;;;29.67;;
47239;SDS011;32978;53.586;10.052;2023-02-15T22:53:29;32.78;;;29.38;;
47239;SDS011;32978;53.586;10.052;2023-02-15T22:58:25;36.60;;;30.67;;
47239;SDS011;32978;53.586;10.052;2023-02-15T23:03:24;36.40;;;29.38;;
47239;SDS011;32978;53.586;10.052;2023-02-15T23:08:21;38.08;;;30.75;;
47239;SDS011;32978;53.586;10.052;2023-02-15T23:13:19;38.40;;;33.45;;
47239;SDS011;32978;53.586;10.052;2023-02-15T23:18:29;43.38;;;33.35;;
47239;SDS011;32978;53.586;10.052;2023-02-15T23:23:30;34.50;;;29.60;;
47239;SDS011;32978;53.586;10.052;2023-02-15T23:28:35;37.15;;;31.83;;
47239;SDS011;32978;53.586;10.052;2023-02-15T23:33:32;35.93;;;31.50;;
47239;SDS011;32978;53.586;10.052;2023-02-15T23:38:30;36.85;;;31.27;;
47239;SDS011;32978;53.586;10.052;2023-02-15T23:43:27;34.03;;;30.40;;
47239;SDS011;32978;53.586;10.052;2023-02-15T23:48:33;36.50;;;32.55;;
47239;SDS011;32978;53.586;10.052;2023-02-15T23:53:32;35.65;;;30.80;;
47239;SDS011;32978;53.586;10.052;2023-02-15T23:58:33;33.33;;;29.30;;
